createdAt,value
2017-10-29T00:02:16.766Z,9.50
2017-10-29T00:04:43.068Z,9.50
2017-10-29T00:07:10.201Z,9.60
2017-10-29T00:09:37.315Z,9.60
2017-10-29T00:12:03.681Z,9.60
2017-10-29T00:14:30.116Z,9.70
2017-10-29T00:16:56.511Z,9.70
2017-10-29T00:19:22.854Z,9.70
2017-10-29T00:21:49.266Z,9.70
2017-10-29T00:24:15.897Z,9.90
2017-10-29T00:26:42.273Z,9.80
2017-10-29T00:29:08.719Z,9.80
2017-10-29T00:31:35.828Z,9.90
2017-10-29T00:34:02.226Z,9.90
2017-10-29T00:36:28.550Z,9.90
2017-10-29T00:38:54.933Z,9.90
2017-10-29T00:41:21.322Z,9.90
2017-10-29T00:43:47.731Z,9.90
2017-10-29T00:46:15.300Z,9.90
2017-10-29T00:48:41.644Z,9.90
2017-10-29T00:51:08.065Z,9.90
2017-10-29T00:53:34.720Z,10.00
2017-10-29T00:56:01.204Z,10.00
2017-10-29T00:58:27.584Z,10.00
2017-10-29T01:00:54.092Z,10.00
2017-10-29T01:03:21.284Z,9.90
2017-10-29T01:05:47.681Z,9.90
2017-10-29T01:08:14.097Z,10.00
2017-10-29T01:10:40.540Z,10.00
2017-10-29T01:13:06.877Z,10.00
2017-10-29T01:15:34.101Z,10.00
2017-10-29T01:18:00.447Z,10.00
2017-10-29T01:20:26.849Z,10.00
2017-10-29T01:22:53.197Z,10.00
2017-10-29T01:25:19.666Z,10.10
2017-10-29T01:27:46.766Z,10.10
2017-10-29T01:30:13.129Z,10.10
2017-10-29T01:32:39.526Z,10.10
2017-10-29T01:35:05.901Z,10.10
2017-10-29T01:37:32.186Z,10.20
2017-10-29T01:39:58.668Z,10.20
2017-10-29T01:42:25.765Z,10.30
2017-10-29T01:44:52.134Z,10.20
2017-10-29T01:47:18.546Z,10.30
2017-10-29T01:49:44.912Z,10.30
2017-10-29T01:52:11.263Z,10.30
2017-10-29T01:54:37.637Z,10.40
2017-10-29T01:57:03.995Z,10.40
2017-10-29T01:59:31.145Z,10.50
2017-10-29T02:01:57.568Z,10.50
2017-10-29T02:04:23.905Z,10.60
2017-10-29T02:06:50.281Z,10.70
2017-10-29T02:09:16.669Z,10.80
2017-10-29T02:11:43.012Z,10.80
2017-10-29T02:14:09.425Z,10.80
2017-10-29T02:16:35.817Z,10.80
2017-10-29T02:19:02.216Z,10.80
2017-10-29T02:21:28.617Z,10.80
2017-10-29T02:23:54.964Z,10.90
2017-10-29T02:26:21.391Z,10.80
2017-10-29T02:28:47.795Z,10.70
2017-10-29T02:31:14.195Z,10.60
2017-10-29T02:33:41.362Z,10.60
2017-10-29T02:36:07.705Z,10.60
2017-10-29T02:38:34.025Z,10.60
2017-10-29T02:41:00.401Z,10.50
2017-10-29T02:43:26.759Z,10.50
2017-10-29T02:45:53.075Z,10.50
2017-10-29T02:48:19.426Z,10.40
2017-10-29T02:50:46.540Z,10.40
2017-10-29T02:53:12.974Z,10.40
2017-10-29T02:55:39.353Z,10.40
2017-10-29T02:58:06.542Z,10.50
2017-10-29T03:00:32.896Z,10.50
2017-10-29T03:02:59.294Z,10.50
2017-10-29T03:05:25.710Z,10.50
2017-10-29T03:07:52.092Z,10.60
2017-10-29T03:10:18.417Z,10.70
2017-10-29T03:12:45.155Z,10.70
2017-10-29T03:15:11.527Z,10.70
2017-10-29T03:17:38.613Z,10.70
2017-10-29T03:20:05.083Z,10.70
2017-10-29T03:22:31.499Z,10.70
2017-10-29T03:24:58.778Z,10.80
2017-10-29T03:27:25.127Z,10.80
2017-10-29T03:29:51.515Z,10.80
2017-10-29T03:32:17.893Z,10.80
2017-10-29T03:34:45.035Z,11.00
2017-10-29T03:37:11.427Z,11.00
2017-10-29T03:39:38.563Z,11.10
2017-10-29T03:42:04.983Z,11.10
2017-10-29T03:44:31.346Z,11.20
2017-10-29T03:46:57.744Z,11.20
2017-10-29T03:49:24.832Z,11.30
2017-10-29T03:51:51.190Z,11.20
2017-10-29T03:54:17.574Z,11.20
2017-10-29T03:56:43.926Z,11.20
2017-10-29T03:59:10.285Z,11.20
2017-10-29T04:01:36.731Z,11.20
2017-10-29T04:04:03.953Z,11.00
2017-10-29T04:06:31.099Z,10.80
2017-10-29T04:08:57.532Z,10.70
2017-10-29T04:11:23.921Z,10.60
2017-10-29T04:13:50.356Z,10.60
2017-10-29T04:16:16.741Z,10.60
2017-10-29T04:18:43.119Z,10.60
2017-10-29T04:21:09.461Z,10.60
2017-10-29T04:23:35.825Z,10.50
2017-10-29T04:26:02.272Z,10.50
2017-10-29T04:28:28.642Z,10.40
2017-10-29T04:30:55.760Z,10.40
2017-10-29T04:33:22.191Z,10.40
2017-10-29T04:35:48.729Z,10.40
2017-10-29T04:38:16.039Z,10.60
2017-10-29T04:40:42.464Z,10.50
2017-10-29T04:43:08.871Z,10.60
2017-10-29T04:45:36.201Z,10.70
2017-10-29T04:48:02.600Z,10.70
2017-10-29T04:50:28.940Z,10.80
2017-10-29T04:52:55.325Z,10.80
2017-10-29T04:55:22.520Z,10.80
2017-10-29T04:57:48.930Z,10.80
2017-10-29T05:00:15.328Z,10.90
2017-10-29T05:02:42.840Z,10.90
2017-10-29T05:05:09.272Z,10.90
2017-10-29T05:07:42.678Z,11.00
2017-10-29T05:10:09.120Z,10.80
2017-10-29T05:12:35.482Z,10.50
2017-10-29T05:15:06.941Z,10.20
2017-10-29T05:17:33.417Z,9.90
2017-10-29T05:19:59.932Z,9.80
2017-10-29T05:22:26.423Z,9.60
2017-10-29T05:24:52.862Z,9.50
2017-10-29T05:27:19.289Z,9.40
2017-10-29T05:29:45.703Z,9.40
2017-10-29T05:32:12.117Z,9.50
2017-10-29T05:34:38.508Z,9.50
2017-10-29T05:37:04.971Z,9.20
2017-10-29T05:39:32.033Z,8.70
2017-10-29T05:41:58.354Z,8.60
2017-10-29T05:44:24.807Z,8.40
2017-10-29T05:46:51.222Z,8.20
2017-10-29T05:49:17.550Z,8.20
2017-10-29T05:51:43.952Z,8.10
2017-10-29T05:54:10.277Z,8.20
2017-10-29T05:56:36.662Z,8.30
2017-10-29T05:59:03.071Z,8.40
2017-10-29T06:01:29.479Z,8.30
2017-10-29T06:03:55.930Z,8.40
2017-10-29T06:06:23.038Z,8.50
2017-10-29T06:08:49.559Z,8.50
2017-10-29T06:11:16.022Z,8.50
2017-10-29T06:13:42.551Z,8.70
2017-10-29T06:16:09.050Z,8.80
2017-10-29T06:18:35.476Z,8.70
2017-10-29T06:21:01.882Z,8.80
2017-10-29T06:23:29.068Z,8.90
2017-10-29T06:25:55.417Z,8.90
2017-10-29T06:28:21.891Z,8.90
2017-10-29T06:30:48.404Z,9.00
2017-10-29T06:33:14.881Z,9.00
2017-10-29T06:35:41.343Z,9.00
2017-10-29T06:38:08.083Z,8.90
2017-10-29T06:40:35.144Z,8.90
2017-10-29T06:43:01.650Z,8.80
2017-10-29T06:45:28.194Z,8.80
2017-10-29T06:47:54.536Z,8.80
2017-10-29T06:50:21.034Z,8.90
2017-10-29T06:52:48.165Z,9.10
2017-10-29T06:55:14.623Z,9.10
2017-10-29T06:57:41.756Z,9.30
2017-10-29T07:00:08.174Z,9.30
2017-10-29T07:02:34.688Z,9.40
2017-10-29T07:05:01.062Z,9.40
2017-10-29T07:07:28.911Z,9.50
2017-10-29T07:09:55.369Z,9.50
2017-10-29T07:12:22.521Z,9.50
2017-10-29T07:14:49.685Z,9.50
2017-10-29T07:17:16.222Z,9.50
2017-10-29T07:19:42.643Z,9.50
2017-10-29T07:22:09.072Z,9.60
2017-10-29T07:24:35.480Z,9.50
2017-10-29T07:27:01.916Z,9.60
2017-10-29T07:29:28.289Z,9.60
2017-10-29T07:31:54.658Z,9.70
2017-10-29T07:34:21.309Z,9.70
2017-10-29T07:36:47.770Z,9.80
2017-10-29T07:39:14.417Z,9.80
2017-10-29T07:41:41.622Z,9.80
2017-10-29T07:44:07.952Z,9.80
2017-10-29T07:46:34.537Z,9.90
2017-10-29T07:49:02.681Z,10.10
2017-10-29T07:51:29.073Z,10.10
2017-10-29T07:53:55.467Z,10.10
2017-10-29T07:56:21.999Z,10.20
2017-10-29T07:58:49.153Z,10.10
2017-10-29T08:01:15.531Z,10.00
2017-10-29T08:03:42.023Z,10.10
2017-10-29T08:06:09.194Z,10.10
2017-10-29T08:08:35.621Z,10.10
2017-10-29T08:11:02.082Z,10.20
2017-10-29T08:13:28.443Z,10.10
2017-10-29T08:15:55.692Z,10.10
2017-10-29T08:18:22.098Z,10.20
2017-10-29T08:20:48.626Z,10.30
2017-10-29T08:23:15.134Z,10.30
2017-10-29T08:25:42.272Z,10.30
2017-10-29T08:28:08.707Z,10.30
2017-10-29T08:30:35.166Z,10.30
2017-10-29T08:33:01.635Z,10.20
2017-10-29T08:35:28.181Z,10.20
2017-10-29T08:37:55.359Z,10.20
2017-10-29T08:40:21.771Z,10.20
2017-10-29T08:42:48.171Z,10.30
2017-10-29T08:45:14.561Z,10.30
2017-10-29T08:47:40.972Z,10.30
2017-10-29T08:50:07.414Z,10.30
2017-10-29T08:52:34.040Z,10.30
2017-10-29T08:55:00.409Z,10.40
2017-10-29T08:57:27.063Z,10.30
2017-10-29T08:59:53.388Z,10.20
2017-10-29T09:02:19.729Z,10.10
2017-10-29T09:04:46.310Z,10.00
2017-10-29T09:07:12.659Z,9.90
2017-10-29T09:09:39.083Z,9.90
2017-10-29T09:12:05.627Z,9.80
2017-10-29T09:14:32.050Z,9.80
2017-10-29T09:16:58.394Z,9.90
2017-10-29T09:19:24.987Z,9.80
2017-10-29T09:21:51.493Z,9.90
2017-10-29T09:24:18.003Z,9.90
2017-10-29T09:26:44.606Z,10.00
2017-10-29T09:29:11.077Z,10.10
2017-10-29T09:31:37.652Z,10.30
2017-10-29T09:34:03.997Z,10.20
2017-10-29T09:36:30.401Z,10.30
2017-10-29T09:38:56.815Z,10.20
2017-10-29T09:41:23.173Z,10.20
2017-10-29T09:43:50.339Z,10.20
2017-10-29T09:46:16.794Z,10.10
2017-10-29T09:48:43.305Z,10.10
2017-10-29T09:51:09.717Z,10.10
2017-10-29T09:53:36.895Z,10.30
2017-10-29T09:56:03.341Z,10.30
2017-10-29T09:58:29.803Z,10.30
2017-10-29T10:00:56.227Z,10.30
2017-10-29T10:03:22.606Z,10.30
2017-10-29T10:05:49.796Z,10.10
2017-10-29T10:08:16.298Z,10.10
2017-10-29T10:10:42.728Z,10.00
2017-10-29T10:13:09.450Z,9.80
2017-10-29T10:15:35.791Z,9.70
2017-10-29T10:18:02.986Z,9.90
2017-10-29T10:20:29.383Z,9.90
2017-10-29T10:22:56.694Z,10.20
2017-10-29T10:25:23.211Z,10.20
2017-10-29T10:27:49.705Z,10.40
2017-10-29T10:30:17.117Z,10.50
2017-10-29T10:32:44.187Z,10.50
2017-10-29T10:35:10.625Z,10.40
2017-10-29T10:37:37.224Z,10.20
2017-10-29T10:40:03.685Z,10.30
2017-10-29T10:42:30.081Z,10.20
2017-10-29T10:44:56.435Z,10.10
2017-10-29T10:47:22.839Z,9.90
2017-10-29T10:49:49.513Z,10.00
2017-10-29T10:52:15.924Z,9.90
2017-10-29T10:54:42.386Z,9.80
2017-10-29T10:57:08.806Z,9.00
2017-10-29T10:59:35.228Z,8.10
2017-10-29T11:02:01.730Z,7.70
2017-10-29T11:04:40.436Z,7.50
2017-10-29T11:07:07.623Z,7.20
2017-10-29T11:09:34.086Z,7.20
2017-10-29T11:12:00.546Z,7.10
2017-10-29T11:14:26.904Z,7.10
2017-10-29T11:16:54.037Z,7.30
2017-10-29T11:19:20.476Z,7.20
2017-10-29T11:21:47.579Z,7.40
2017-10-29T11:24:13.887Z,7.40
2017-10-29T11:26:40.265Z,7.30
2017-10-29T11:29:06.693Z,7.30
2017-10-29T11:31:33.143Z,7.20
2017-10-29T11:33:59.501Z,6.90
2017-10-29T11:36:26.687Z,6.40
2017-10-29T11:38:53.105Z,6.40
2017-10-29T11:41:19.411Z,6.50
2017-10-29T11:43:46.502Z,6.60
2017-10-29T11:46:13.042Z,6.60
2017-10-29T11:48:39.487Z,6.70
2017-10-29T11:51:06.529Z,7.00
2017-10-29T11:53:32.853Z,6.90
2017-10-29T11:55:59.288Z,7.00
2017-10-29T11:58:25.678Z,7.10
2017-10-29T12:00:52.862Z,7.20
2017-10-29T12:03:19.853Z,7.20
2017-10-29T12:05:46.210Z,7.40
2017-10-29T12:08:13.275Z,7.50
2017-10-29T12:10:39.640Z,7.50
2017-10-29T12:13:06.235Z,7.70
2017-10-29T12:15:33.212Z,7.80
2017-10-29T12:17:59.578Z,7.80
2017-10-29T12:20:25.953Z,7.70
2017-10-29T12:22:52.306Z,7.70
2017-10-29T12:25:18.732Z,7.60
2017-10-29T12:27:45.188Z,7.50
2017-10-29T12:30:11.529Z,7.50
2017-10-29T12:32:37.871Z,7.60
2017-10-29T12:35:04.220Z,7.70
2017-10-29T12:37:31.721Z,8.00
2017-10-29T12:39:58.050Z,8.00
2017-10-29T12:42:24.391Z,8.20
2017-10-29T12:44:50.694Z,8.40
2017-10-29T12:47:17.060Z,8.40
2017-10-29T12:49:43.493Z,8.50
2017-10-29T12:52:09.846Z,8.40
2017-10-29T12:54:36.285Z,8.30
2017-10-29T12:57:02.677Z,8.20
2017-10-29T12:59:29.108Z,8.20
2017-10-29T13:01:55.538Z,8.30
2017-10-29T13:04:21.901Z,8.30
2017-10-29T13:06:48.284Z,8.50
2017-10-29T13:09:14.949Z,8.60
2017-10-29T13:11:41.290Z,8.50
2017-10-29T13:14:07.707Z,8.60
2017-10-29T13:16:34.060Z,8.60
2017-10-29T13:19:00.466Z,8.70
2017-10-29T13:21:27.081Z,8.70
2017-10-29T13:23:53.505Z,8.70
2017-10-29T13:26:20.722Z,8.80
2017-10-29T13:28:47.033Z,8.80
2017-10-29T13:31:13.445Z,8.80
2017-10-29T13:33:39.941Z,8.80
2017-10-29T13:36:06.298Z,8.80
2017-10-29T13:38:33.396Z,9.40
2017-10-29T13:40:59.864Z,9.40
2017-10-29T13:43:26.240Z,10.40
2017-10-29T13:45:52.711Z,10.70
2017-10-29T13:48:19.223Z,11.80
2017-10-29T13:50:45.842Z,13.30
2017-10-29T13:53:12.659Z,12.40
2017-10-29T13:55:39.749Z,9.10
2017-10-29T13:58:06.348Z,9.10
2017-10-29T14:00:32.721Z,8.40
2017-10-29T14:02:59.180Z,8.00
2017-10-29T14:05:25.513Z,7.60
2017-10-29T14:07:51.847Z,7.10
2017-10-29T14:10:18.995Z,6.70
2017-10-29T14:12:45.444Z,6.20
2017-10-29T14:15:12.677Z,6.00
2017-10-29T14:17:39.244Z,5.90
2017-10-29T14:20:06.431Z,5.90
2017-10-29T14:22:32.779Z,5.80
2017-10-29T14:24:59.194Z,5.90
2017-10-29T14:27:25.548Z,5.90
2017-10-29T14:29:52.004Z,6.10
2017-10-29T14:32:19.094Z,6.30
2017-10-29T14:34:45.390Z,6.30
2017-10-29T14:37:11.670Z,6.40
2017-10-29T14:39:38.104Z,6.50
2017-10-29T14:42:04.481Z,6.50
2017-10-29T14:44:30.811Z,6.60
2017-10-29T14:46:57.222Z,6.70
2017-10-29T14:49:23.670Z,6.70
2017-10-29T14:51:50.033Z,6.70
2017-10-29T14:54:17.159Z,6.70
2017-10-29T14:56:43.550Z,6.70
2017-10-29T14:59:10.128Z,6.80
2017-10-29T15:01:36.564Z,6.90
2017-10-29T15:04:03.113Z,6.90
2017-10-29T15:06:29.447Z,6.90
2017-10-29T15:08:55.837Z,6.90
2017-10-29T15:11:22.233Z,6.80
2017-10-29T15:13:48.531Z,6.80
2017-10-29T15:16:14.932Z,6.80
2017-10-29T15:18:41.326Z,6.80
2017-10-29T15:21:08.443Z,6.70
2017-10-29T15:23:34.917Z,6.70
2017-10-29T15:26:01.300Z,6.70
2017-10-29T15:28:27.685Z,6.80
2017-10-29T15:30:54.041Z,6.80
2017-10-29T15:33:21.020Z,6.90
2017-10-29T15:35:49.126Z,6.90
2017-10-29T15:38:15.539Z,6.80
2017-10-29T15:40:41.812Z,6.80
2017-10-29T15:43:08.259Z,6.80
2017-10-29T15:45:34.599Z,6.80
2017-10-29T15:48:01.927Z,6.80
2017-10-29T15:50:28.444Z,6.80
2017-10-29T15:52:55.502Z,6.80
2017-10-29T15:55:21.849Z,6.70
2017-10-29T15:57:48.180Z,6.80
2017-10-29T16:00:14.589Z,6.70
2017-10-29T16:02:41.659Z,6.80
2017-10-29T16:05:07.980Z,6.70
2017-10-29T16:07:34.355Z,6.70
2017-10-29T16:10:00.728Z,6.70
2017-10-29T16:12:27.890Z,6.70
2017-10-29T16:14:54.600Z,6.70
2017-10-29T16:17:21.874Z,6.70
2017-10-29T16:19:48.280Z,6.70
2017-10-29T16:22:14.602Z,6.70
2017-10-29T16:24:40.992Z,6.60
2017-10-29T16:27:07.352Z,6.70
2017-10-29T16:29:33.827Z,6.70
2017-10-29T16:32:00.982Z,6.70
2017-10-29T16:34:28.071Z,6.70
2017-10-29T16:36:54.533Z,6.70
2017-10-29T16:39:20.916Z,6.70
2017-10-29T16:41:47.346Z,6.70
2017-10-29T16:44:13.715Z,6.80
2017-10-29T16:46:40.069Z,6.80
2017-10-29T16:49:06.486Z,6.90
2017-10-29T16:51:32.791Z,7.00
2017-10-29T16:53:59.311Z,7.00
2017-10-29T16:56:25.750Z,7.00
2017-10-29T16:58:52.073Z,6.90
2017-10-29T17:01:18.457Z,6.90
2017-10-29T17:03:44.924Z,6.80
2017-10-29T17:06:12.761Z,6.70
2017-10-29T17:08:39.210Z,6.70
2017-10-29T17:11:05.530Z,6.70
2017-10-29T17:13:32.657Z,6.60
2017-10-29T17:15:59.022Z,6.60
2017-10-29T17:18:26.108Z,6.50
2017-10-29T17:20:52.578Z,6.50
2017-10-29T17:23:18.872Z,6.40
2017-10-29T17:25:45.185Z,6.40
2017-10-29T17:28:13.295Z,6.20
2017-10-29T17:30:39.693Z,6.20
2017-10-29T17:33:06.876Z,6.20
2017-10-29T17:35:33.375Z,6.20
2017-10-29T17:38:00.553Z,6.20
2017-10-29T17:40:27.052Z,6.20
2017-10-29T17:42:53.720Z,6.10
2017-10-29T17:45:20.153Z,6.10
2017-10-29T17:47:46.525Z,6.10
2017-10-29T17:50:12.913Z,6.10
2017-10-29T17:52:39.530Z,6.10
2017-10-29T17:55:06.009Z,6.10
2017-10-29T17:57:34.268Z,6.00
2017-10-29T18:00:00.617Z,5.90
2017-10-29T18:02:27.094Z,5.90
2017-10-29T18:04:53.512Z,5.90
2017-10-29T18:07:19.906Z,5.90
2017-10-29T18:09:46.298Z,5.90
2017-10-29T18:12:12.776Z,5.90
2017-10-29T18:14:39.127Z,5.90
2017-10-29T18:17:05.592Z,5.90
2017-10-29T18:19:32.025Z,5.80
2017-10-29T18:21:58.431Z,5.80
2017-10-29T18:24:24.764Z,5.80
2017-10-29T18:26:51.097Z,5.90
2017-10-29T18:29:17.437Z,5.80
2017-10-29T18:31:43.838Z,5.80
2017-10-29T18:34:10.218Z,5.80
2017-10-29T18:36:36.667Z,5.80
2017-10-29T18:39:03.777Z,5.80
2017-10-29T18:41:30.419Z,5.80
2017-10-29T18:43:58.298Z,5.80
2017-10-29T18:46:24.658Z,5.80
2017-10-29T18:48:51.839Z,5.80
2017-10-29T18:51:18.226Z,5.80
2017-10-29T18:53:44.588Z,5.90
2017-10-29T18:56:18.081Z,6.00
2017-10-29T18:58:44.592Z,6.00
2017-10-29T19:01:11.025Z,6.00
2017-10-29T19:03:37.433Z,5.90
2017-10-29T19:06:03.791Z,6.00
2017-10-29T19:08:30.199Z,6.00
2017-10-29T19:10:57.304Z,6.10
2017-10-29T19:13:35.372Z,6.10
2017-10-29T19:18:37.596Z,6.20
2017-10-29T19:23:51.216Z,6.30
2017-10-29T19:26:17.522Z,6.40
2017-10-29T19:28:43.831Z,6.40
2017-10-29T19:31:10.197Z,6.50
2017-10-29T19:33:36.602Z,6.60
2017-10-29T19:36:03.067Z,6.60
2017-10-29T19:38:29.556Z,6.50
2017-10-29T19:40:55.866Z,6.40
2017-10-29T19:43:23.003Z,6.00
2017-10-29T19:45:49.419Z,6.00
2017-10-29T19:48:15.775Z,5.70
2017-10-29T19:50:42.996Z,5.30
2017-10-29T19:53:09.335Z,5.20
2017-10-29T19:55:35.727Z,5.20
2017-10-29T19:58:02.028Z,5.00
2017-10-29T20:00:28.632Z,5.00
2017-10-29T20:02:55.070Z,5.00
2017-10-29T20:05:21.502Z,4.80
2017-10-29T20:07:47.825Z,4.70
2017-10-29T20:10:14.201Z,4.60
2017-10-29T20:12:40.554Z,4.60
2017-10-29T20:15:06.994Z,4.60
2017-10-29T20:17:33.306Z,4.70
2017-10-29T20:19:59.691Z,4.70
2017-10-29T20:22:26.148Z,4.70
2017-10-29T20:24:53.228Z,4.70
2017-10-29T20:27:19.801Z,4.70
2017-10-29T20:29:46.133Z,4.90
2017-10-29T20:32:12.576Z,4.90
2017-10-29T20:34:38.965Z,5.00
2017-10-29T20:37:05.347Z,4.90
2017-10-29T20:39:32.073Z,4.90
2017-10-29T20:41:58.423Z,4.90
2017-10-29T20:44:24.778Z,5.00
2017-10-29T20:46:51.826Z,5.30
2017-10-29T20:49:19.069Z,5.40
2017-10-29T20:51:46.122Z,5.40
2017-10-29T20:54:13.618Z,5.60
2017-10-29T20:56:40.001Z,5.50
2017-10-29T20:59:06.476Z,5.50
2017-10-29T21:01:33.044Z,5.60
2017-10-29T21:04:00.696Z,5.70
2017-10-29T21:06:27.102Z,5.70
2017-10-29T21:08:53.554Z,5.80
2017-10-29T21:11:20.790Z,5.80
2017-10-29T21:13:47.077Z,5.80
2017-10-29T21:16:13.556Z,5.80
2017-10-29T21:18:40.965Z,5.80
2017-10-29T21:21:07.271Z,5.80
2017-10-29T21:23:33.627Z,5.80
2017-10-29T21:26:00.201Z,5.80
2017-10-29T21:28:27.525Z,5.70
2017-10-29T21:30:54.029Z,5.70
2017-10-29T21:33:20.477Z,5.70
2017-10-29T21:35:46.846Z,5.60
2017-10-29T21:38:13.944Z,5.60
2017-10-29T21:40:40.362Z,5.60
2017-10-29T21:43:06.758Z,5.60
2017-10-29T21:45:33.880Z,5.50
2017-10-29T21:48:00.421Z,5.50
2017-10-29T21:50:26.736Z,5.50
2017-10-29T21:52:53.059Z,5.60
2017-10-29T21:55:19.472Z,5.60
2017-10-29T21:57:46.901Z,5.60
2017-10-29T22:00:14.582Z,5.70
2017-10-29T22:02:41.423Z,5.70
2017-10-29T22:05:07.765Z,5.70
2017-10-29T22:07:34.251Z,5.70
2017-10-29T22:10:00.591Z,5.70
2017-10-29T22:12:27.817Z,5.70
2017-10-29T22:14:54.243Z,5.70
2017-10-29T22:17:21.169Z,5.80
2017-10-29T22:19:47.541Z,5.80
2017-10-29T22:22:13.846Z,5.80
2017-10-29T22:24:40.289Z,5.80
2017-10-29T22:27:06.606Z,5.80
2017-10-29T22:29:32.936Z,5.90
2017-10-29T22:31:59.273Z,5.90
2017-10-29T22:34:25.592Z,5.80
2017-10-29T22:36:51.942Z,5.80
2017-10-29T22:39:18.287Z,5.80
2017-10-29T22:41:44.601Z,5.80
2017-10-29T22:44:10.913Z,5.80
2017-10-29T22:46:37.223Z,5.80
2017-10-29T22:49:03.593Z,5.80
2017-10-29T22:51:29.874Z,5.80
2017-10-29T22:53:56.878Z,5.90
2017-10-29T22:56:23.841Z,5.90
2017-10-29T22:58:50.146Z,5.90
2017-10-29T23:01:16.465Z,5.80
2017-10-29T23:03:42.835Z,5.90
2017-10-29T23:06:27.993Z,5.80
2017-10-29T23:08:54.308Z,5.80
2017-10-29T23:11:20.587Z,5.80
2017-10-29T23:13:48.615Z,5.70
2017-10-29T23:16:14.888Z,5.70
2017-10-29T23:18:41.962Z,5.60
2017-10-29T23:21:08.324Z,5.60
2017-10-29T23:23:34.669Z,5.60
2017-10-29T23:26:01.026Z,5.60
2017-10-29T23:28:28.126Z,5.70
2017-10-29T23:30:54.475Z,5.60
2017-10-29T23:33:21.528Z,5.70
2017-10-29T23:35:47.844Z,5.60
2017-10-29T23:38:14.172Z,5.60
2017-10-29T23:40:40.667Z,5.60
2017-10-29T23:43:07.868Z,5.60
2017-10-29T23:45:34.431Z,5.60
2017-10-29T23:48:00.763Z,5.50
2017-10-29T23:50:28.170Z,5.60
2017-10-29T23:52:54.526Z,5.50
2017-10-29T23:55:20.982Z,5.60
2017-10-29T23:57:47.295Z,5.60
